Time;durP1;ratioP1;P1;durP2;ratioP2;P2;SDS_P1;SDS_P2;PMS_P1;PMS_P2;Temp;Humidity;BMP_temperature;BMP_pressure;BME280_temperature;BME280_humidity;BME280_pressure;Samples;Min_cycle;Max_cycle;Signal;HPM_P1;HPM_P2
2022/04/19 00:00:07;;;;;;;12.52;9.05;;;11.00;99.90;;;;;;5055932;28;20530;-60
2022/04/19 00:02:33;;;;;;;13.90;9.52;;;11.00;99.90;;;;;;5073484;28;20632;-60
2022/04/19 00:04:59;;;;;;;13.85;8.70;;;10.90;99.90;;;;;;5073428;28;20278;-59
2022/04/19 00:07:25;;;;;;;12.55;9.52;;;10.90;99.90;;;;;;5055660;28;20193;-59
2022/04/19 00:09:51;;;;;;;12.82;8.75;;;10.90;99.90;;;;;;5073422;28;20202;-60
2022/04/19 00:12:17;;;;;;;13.38;9.30;;;10.80;99.90;;;;;;5073613;28;20206;-60
2022/04/19 00:14:43;;;;;;;12.75;9.57;;;10.80;99.90;;;;;;5073516;28;20167;-60
2022/04/19 00:17:09;;;;;;;12.77;9.18;;;10.80;99.90;;;;;;5073314;28;20174;-60
2022/04/19 00:19:36;;;;;;;15.27;9.75;;;10.70;99.90;;;;;;5055477;28;20175;-60
2022/04/19 00:22:02;;;;;;;12.70;9.40;;;10.60;99.90;;;;;;5055773;28;20642;-60
2022/04/19 00:24:28;;;;;;;13.10;8.82;;;10.60;99.90;;;;;;5073004;28;20213;-60
2022/04/19 00:26:54;;;;;;;15.32;9.95;;;10.60;99.90;;;;;;5073364;28;20179;-59
2022/04/19 00:29:20;;;;;;;15.20;8.95;;;10.60;99.90;;;;;;5073199;28;20210;-60
2022/04/19 00:31:46;;;;;;;11.85;9.20;;;10.60;99.90;;;;;;5073366;28;20214;-59
2022/04/19 00:34:11;;;;;;;13.48;9.35;;;10.60;99.90;;;;;;5073212;28;20193;-60
2022/04/19 00:36:37;;;;;;;14.07;9.63;;;10.50;99.90;;;;;;5073163;28;20179;-60
2022/04/19 00:39:04;;;;;;;13.73;9.25;;;10.50;99.90;;;;;;5073019;28;20174;-60
2022/04/19 00:41:30;;;;;;;15.50;9.85;;;10.40;99.90;;;;;;5073266;28;20533;-60
2022/04/19 00:43:56;;;;;;;14.38;10.02;;;10.40;99.90;;;;;;5038556;28;20206;-60
2022/04/19 00:46:21;;;;;;;13.38;9.63;;;10.40;99.90;;;;;;5073048;28;20174;-59
2022/04/19 00:48:47;;;;;;;13.35;9.10;;;10.30;99.90;;;;;;5073144;28;20198;-59
2022/04/19 00:51:14;;;;;;;13.35;9.20;;;10.30;99.90;;;;;;5073033;28;20210;-59
2022/04/19 00:53:42;;;;;;;13.35;9.48;;;10.30;99.90;;;;;;5072911;28;20221;-60
2022/04/19 00:56:07;;;;;;;15.63;9.88;;;10.30;99.90;;;;;;5072846;28;20206;-59
2022/04/19 00:58:34;;;;;;;14.38;9.70;;;10.20;99.90;;;;;;5072875;28;20554;-59
2022/04/19 01:01:01;;;;;;;13.93;9.60;;;10.20;99.90;;;;;;5073011;28;20179;-59
2022/04/19 01:03:26;;;;;;;15.25;10.60;;;10.20;99.90;;;;;;5055749;28;20225;-59
2022/04/19 01:05:53;;;;;;;13.30;9.38;;;10.10;99.90;;;;;;5058923;28;20186;-59
2022/04/19 01:08:20;;;;;;;12.52;9.65;;;10.10;99.90;;;;;;5076729;28;20170;-59
2022/04/19 01:10:46;;;;;;;15.05;10.32;;;10.10;99.90;;;;;;5059242;28;20585;-59
2022/04/19 01:13:17;;;;;;;13.88;10.25;;;10.10;99.90;;;;;;5076361;28;20202;-59
2022/04/19 01:15:50;;;;;;;13.75;10.38;;;10.10;99.90;;;;;;5059717;28;20177;-60
2022/04/19 01:18:22;;;;;;;13.93;9.60;;;10.10;99.90;;;;;;5076666;28;20175;-60
2022/04/19 01:20:52;;;;;;;14.80;10.63;;;10.10;99.90;;;;;;5076512;28;20240;-59
2022/04/19 01:23:22;;;;;;;15.32;11.15;;;10.10;99.90;;;;;;5076533;28;20218;-59
2022/04/19 01:25:48;;;;;;;16.52;10.85;;;10.00;99.90;;;;;;5076665;28;20229;-60
2022/04/19 01:28:14;;;;;;;14.50;10.30;;;9.90;99.90;;;;;;5076567;28;20545;-59
2022/04/19 01:30:44;;;;;;;15.20;10.02;;;9.80;99.90;;;;;;5076490;28;20173;-59
2022/04/19 01:33:10;;;;;;;14.30;10.00;;;9.80;99.90;;;;;;5076202;28;20186;-60
2022/04/19 01:35:36;;;;;;;16.05;10.70;;;9.90;99.90;;;;;;5076592;28;20648;-59
2022/04/19 01:38:02;;;;;;;16.15;10.55;;;9.90;99.90;;;;;;5059036;28;20713;-59
2022/04/19 01:40:27;;;;;;;15.68;10.60;;;9.90;99.90;;;;;;5041965;28;20199;-59
2022/04/19 01:43:00;;;;;;;13.93;9.93;;;9.90;99.90;;;;;;5058305;28;20752;-59
2022/04/19 01:45:28;;;;;;;15.13;10.55;;;9.70;99.90;;;;;;5076208;28;20750;-59
2022/04/19 01:47:55;;;;;;;13.73;10.77;;;9.50;99.90;;;;;;5075950;28;20634;-59
2022/04/19 01:50:21;;;;;;;14.60;10.52;;;9.60;99.90;;;;;;5075987;28;20206;-59
2022/04/19 01:52:49;;;;;;;17.55;10.73;;;9.50;99.90;;;;;;5076087;28;20189;-59
2022/04/19 01:55:16;;;;;;;14.55;10.30;;;9.60;99.90;;;;;;5076071;28;20193;-59
2022/04/19 01:57:47;;;;;;;15.68;10.68;;;9.50;99.90;;;;;;5058027;28;20179;-59
2022/04/19 02:00:14;;;;;;;16.98;10.98;;;9.40;99.90;;;;;;5075859;28;20167;-59
2022/04/19 02:02:40;;;;;;;14.00;10.57;;;9.30;99.90;;;;;;5075608;28;20209;-59
2022/04/19 02:05:07;;;;;;;16.02;11.63;;;9.40;99.90;;;;;;5075873;28;20202;-59
2022/04/19 02:07:33;;;;;;;16.35;11.50;;;9.40;99.90;;;;;;5075607;28;20691;-59
2022/04/19 02:10:02;;;;;;;16.50;12.10;;;9.40;99.90;;;;;;5075797;28;20170;-60
2022/04/19 02:12:28;;;;;;;14.60;11.32;;;9.40;99.90;;;;;;5075694;28;20212;-59
2022/04/19 02:14:54;;;;;;;15.23;11.55;;;9.30;99.90;;;;;;5057198;28;20261;-59
2022/04/19 02:17:21;;;;;;;19.20;12.45;;;9.30;99.90;;;;;;5057649;28;20178;-59
2022/04/19 02:19:47;;;;;;;16.48;11.85;;;9.30;99.90;;;;;;5075619;28;20189;-59
2022/04/19 02:22:13;;;;;;;16.85;12.10;;;9.40;99.90;;;;;;5075590;28;20203;-59
2022/04/19 02:24:39;;;;;;;18.05;12.90;;;9.40;99.90;;;;;;5075421;28;20625;-59
2022/04/19 02:27:05;;;;;;;17.80;12.65;;;9.40;99.90;;;;;;5040856;28;20269;-59
2022/04/19 02:29:32;;;;;;;16.30;12.52;;;9.40;99.90;;;;;;5057257;28;20179;-59
2022/04/19 02:31:57;;;;;;;17.80;12.52;;;9.40;99.90;;;;;;5057780;28;20201;-59
2022/04/19 02:34:23;;;;;;;18.10;12.98;;;9.40;99.90;;;;;;5075409;28;20712;-59
2022/04/19 02:36:52;;;;;;;18.25;13.00;;;9.40;99.90;;;;;;5075289;28;20171;-59
2022/04/19 02:39:19;;;;;;;18.27;13.43;;;9.40;99.90;;;;;;5075246;28;20170;-59
2022/04/19 02:41:44;;;;;;;18.38;12.85;;;9.40;99.90;;;;;;5057273;28;20167;-59
2022/04/19 02:44:10;;;;;;;17.30;12.70;;;9.40;99.90;;;;;;5074892;28;20198;-59
2022/04/19 02:46:36;;;;;;;18.25;12.73;;;9.40;99.90;;;;;;5075484;28;20174;-59
2022/04/19 02:49:05;;;;;;;18.13;13.27;;;9.30;99.90;;;;;;5075139;28;20178;-59
2022/04/19 02:51:35;;;;;;;16.40;12.75;;;9.30;99.90;;;;;;5040862;28;20175;-59
2022/04/19 02:54:01;;;;;;;16.50;12.48;;;9.20;99.90;;;;;;5075016;28;20198;-59
2022/04/19 02:56:27;;;;;;;18.67;14.10;;;9.20;99.90;;;;;;5057084;28;20186;-59
2022/04/19 02:58:53;;;;;;;13.05;9.40;;;9.30;99.90;;;;;;5074727;28;20175;-59
2022/04/19 03:01:18;;;;;;;19.08;13.88;;;9.30;99.90;;;;;;5074908;28;20289;-60
2022/04/19 03:03:45;;;;;;;19.17;14.20;;;9.30;99.90;;;;;;5074316;28;20305;-59
2022/04/19 03:06:10;;;;;;;18.85;13.25;;;9.30;99.90;;;;;;5056850;28;20275;-59
2022/04/19 03:08:36;;;;;;;18.73;14.20;;;9.30;99.90;;;;;;5074686;28;20606;-59
2022/04/19 03:11:02;;;;;;;18.90;13.40;;;9.40;99.90;;;;;;5074857;28;20175;-59
2022/04/19 03:13:28;;;;;;;19.80;13.90;;;9.40;99.90;;;;;;5074425;28;20181;-59
2022/04/19 03:15:54;;;;;;;20.77;15.48;;;9.40;99.90;;;;;;5074656;28;20261;-59
2022/04/19 03:18:20;;;;;;;21.50;15.15;;;9.40;99.90;;;;;;5074520;28;20167;-59
2022/04/19 03:20:46;;;;;;;18.00;13.57;;;9.40;99.90;;;;;;5074428;28;20177;-59
2022/04/19 03:28:45;;;;;;;19.67;14.00;;;9.40;99.90;;;;;;5074438;28;20177;-59
2022/04/19 03:31:12;;;;;;;19.65;14.77;;;9.40;99.90;;;;;;5074194;28;20189;-59
2022/04/19 03:33:39;;;;;;;17.30;13.63;;;9.40;99.90;;;;;;5074046;28;20252;-59
2022/04/19 03:36:05;;;;;;;19.92;13.73;;;9.30;99.90;;;;;;5073952;28;20179;-59
2022/04/19 03:38:31;;;;;;;18.73;15.00;;;9.20;99.90;;;;;;5073879;28;20652;-59
2022/04/19 03:40:57;;;;;;;19.45;13.60;;;9.10;99.90;;;;;;5074118;28;20258;-60
2022/04/19 03:43:23;;;;;;;21.08;14.85;;;9.00;99.90;;;;;;5073984;28;20577;-59
2022/04/19 03:45:49;;;;;;;19.38;14.45;;;9.00;99.90;;;;;;5056093;28;20186;-59
2022/04/19 03:48:14;;;;;;;18.65;14.55;;;8.90;99.90;;;;;;5074000;28;20174;-60
2022/04/19 03:50:40;;;;;;;18.65;14.45;;;8.80;99.90;;;;;;5055793;28;20244;-59
2022/04/19 03:53:07;;;;;;;17.70;13.85;;;8.80;99.90;;;;;;5073667;28;20181;-59
2022/04/19 03:55:32;;;;;;;22.17;15.23;;;8.70;99.90;;;;;;5073668;28;20205;-60
2022/04/19 03:57:58;;;;;;;19.70;14.40;;;8.70;99.90;;;;;;5055976;28;20747;-59
2022/04/19 04:00:24;;;;;;;19.27;14.27;;;8.70;99.90;;;;;;5073937;28;20266;-59
2022/04/19 04:02:50;;;;;;;17.77;13.43;;;8.70;99.90;;;;;;5073556;28;20202;-59
2022/04/19 04:05:16;;;;;;;19.23;13.60;;;8.70;99.90;;;;;;5073455;28;20186;-59
2022/04/19 04:07:42;;;;;;;18.35;14.10;;;8.70;99.90;;;;;;5073383;28;20269;-59
2022/04/19 04:10:08;;;;;;;20.00;13.98;;;8.70;99.90;;;;;;5073652;28;20261;-59
2022/04/19 04:12:34;;;;;;;20.20;14.02;;;8.60;99.90;;;;;;5073421;28;20262;-59
2022/04/19 04:15:03;;;;;;;18.90;14.27;;;8.40;99.90;;;;;;5073435;28;20641;-59
2022/04/19 04:17:29;;;;;;;20.27;14.68;;;8.40;99.90;;;;;;5073399;28;20254;-59
2022/04/19 04:19:58;;;;;;;20.67;14.85;;;8.30;99.90;;;;;;5073245;28;20233;-59
2022/04/19 04:22:24;;;;;;;20.83;15.05;;;8.40;99.90;;;;;;5073169;28;20224;-59
2022/04/19 04:24:49;;;;;;;19.85;14.75;;;8.30;99.90;;;;;;5073102;28;20187;-59
2022/04/19 04:27:15;;;;;;;20.63;14.07;;;8.30;99.90;;;;;;5073234;28;20174;-59
2022/04/19 04:29:41;;;;;;;18.45;14.30;;;8.40;99.90;;;;;;5055739;28;20240;-59
2022/04/19 04:32:07;;;;;;;18.52;13.23;;;8.40;99.90;;;;;;5073066;28;20171;-59
2022/04/19 04:34:33;;;;;;;19.77;15.15;;;8.40;99.90;;;;;;5073034;28;20178;-59
2022/04/19 04:36:59;;;;;;;20.98;14.88;;;8.40;99.90;;;;;;5072823;28;20171;-60
2022/04/19 04:39:24;;;;;;;20.00;15.38;;;8.40;99.90;;;;;;5073347;28;20190;-59
2022/04/19 04:41:50;;;;;;;18.85;13.55;;;8.40;99.90;;;;;;5073221;28;20186;-59
2022/04/19 04:44:16;;;;;;;19.52;14.80;;;8.20;99.90;;;;;;5073094;28;20735;-59
2022/04/19 04:49:36;;;;;;;17.42;13.48;;;8.10;99.90;;;;;;5073344;28;20271;-59
2022/04/19 04:52:12;;;;;;;16.58;13.60;;;8.10;99.90;;;;;;5073224;28;20178;-59
2022/04/19 04:54:39;;;;;;;18.23;13.70;;;8.10;99.90;;;;;;5073065;28;20273;-59
2022/04/19 04:57:06;;;;;;;20.15;14.57;;;8.20;99.90;;;;;;5073171;28;20179;-59
2022/04/19 04:59:33;;;;;;;19.75;14.68;;;8.30;99.90;;;;;;5072817;28;20178;-56
2022/04/19 05:01:59;;;;;;;22.60;15.45;;;8.40;99.90;;;;;;5072836;28;20174;-60
2022/04/19 05:04:25;;;;;;;19.95;15.48;;;8.50;99.90;;;;;;5072384;28;20221;-60
2022/04/19 05:06:51;;;;;;;23.30;16.02;;;8.60;99.90;;;;;;5053531;28;20625;-60
2022/04/19 05:09:17;;;;;;;21.55;14.93;;;8.60;99.90;;;;;;5072544;28;20542;-60
2022/04/19 05:11:46;;;;;;;20.90;15.45;;;8.50;99.90;;;;;;5072953;28;20197;-60
2022/04/19 05:14:14;;;;;;;18.17;14.02;;;8.50;99.90;;;;;;5072638;28;20584;-60
2022/04/19 05:16:41;;;;;;;20.25;14.18;;;8.60;99.90;;;;;;5072916;28;20167;-60
2022/04/19 05:19:07;;;;;;;20.65;14.43;;;8.70;99.90;;;;;;5073169;28;20170;-60
2022/04/19 05:21:32;;;;;;;21.20;15.30;;;8.70;99.90;;;;;;5073059;28;20170;-60
2022/04/19 05:23:58;;;;;;;19.80;13.98;;;8.70;99.90;;;;;;5072832;28;20557;-60
2022/04/19 05:26:28;;;;;;;20.48;15.48;;;8.70;99.90;;;;;;5072811;28;20629;-60
2022/04/19 05:28:54;;;;;;;21.42;15.90;;;8.80;99.90;;;;;;5054552;28;20231;-60
2022/04/19 05:31:20;;;;;;;22.25;15.95;;;8.90;99.90;;;;;;5072675;28;20177;-60
2022/04/19 05:33:46;;;;;;;22.33;16.27;;;9.10;99.90;;;;;;5072753;28;20178;-60
2022/04/19 05:36:14;;;;;;;20.70;15.02;;;9.20;99.90;;;;;;5054862;28;20664;-60
2022/04/19 05:38:40;;;;;;;21.85;16.00;;;9.30;99.90;;;;;;5072617;28;20533;-60
2022/04/19 05:41:06;;;;;;;22.05;16.15;;;9.40;99.90;;;;;;5072446;28;20175;-60
2022/04/19 05:43:31;;;;;;;21.13;15.35;;;9.50;99.90;;;;;;5072335;28;20572;-60
2022/04/19 05:45:58;;;;;;;21.52;15.88;;;9.50;99.90;;;;;;5038521;28;20187;-60
2022/04/19 05:48:25;;;;;;;21.63;15.50;;;9.60;99.90;;;;;;5054794;28;20175;-60
2022/04/19 05:50:51;;;;;;;23.17;16.70;;;9.80;99.90;;;;;;5075283;28;20679;-60
2022/04/19 05:53:17;;;;;;;23.73;17.75;;;10.10;99.90;;;;;;5076133;28;20261;-60
2022/04/19 05:55:42;;;;;;;24.25;17.85;;;10.40;99.90;;;;;;5076145;28;20270;-60
2022/04/19 05:58:08;;;;;;;23.83;16.88;;;10.60;99.90;;;;;;5075953;28;20174;-60
2022/04/19 06:00:34;;;;;;;26.88;18.58;;;10.90;99.90;;;;;;5075976;28;20181;-60
2022/04/19 06:05:44;;;;;;;24.20;17.42;;;11.30;99.90;;;;;;5076297;28;20221;-60
2022/04/19 06:08:10;;;;;;;24.67;16.92;;;11.60;99.90;;;;;;5075767;28;20170;-60
2022/04/19 06:10:36;;;;;;;23.92;16.55;;;11.80;99.90;;;;;;5041099;28;20179;-59
2022/04/19 06:13:02;;;;;;;19.95;14.95;;;11.80;99.90;;;;;;5057995;28;20261;-60
2022/04/19 06:15:28;;;;;;;22.70;15.70;;;11.90;99.90;;;;;;5075749;28;20181;-60
2022/04/19 06:17:53;;;;;;;22.90;15.95;;;11.80;99.90;;;;;;5057800;28;20175;-60
2022/04/19 06:20:19;;;;;;;21.10;14.88;;;11.90;99.90;;;;;;5057730;28;20193;-60
2022/04/19 06:22:45;;;;;;;19.35;13.95;;;11.90;99.90;;;;;;5075446;28;20171;-60
2022/04/19 06:25:12;;;;;;;20.95;14.55;;;11.90;99.90;;;;;;5075729;28;20179;-60
2022/04/19 06:27:38;;;;;;;20.95;14.98;;;11.70;99.90;;;;;;5075573;28;20696;-60
2022/04/19 06:30:04;;;;;;;20.92;15.43;;;11.60;99.90;;;;;;5057696;28;20254;-60
2022/04/19 06:32:30;;;;;;;19.75;14.38;;;11.70;99.90;;;;;;5075449;28;20187;-60
2022/04/19 06:34:56;;;;;;;20.25;14.60;;;11.80;99.90;;;;;;5040925;28;20190;-59
2022/04/19 06:37:22;;;;;;;19.50;14.77;;;11.80;99.90;;;;;;5040733;28;20510;-58
2022/04/19 06:39:48;;;;;;;20.77;15.02;;;12.00;99.90;;;;;;5075431;28;20178;-60
2022/04/19 06:42:14;;;;;;;21.05;15.40;;;12.10;99.90;;;;;;5075362;28;20590;-60
2022/04/19 06:44:39;;;;;;;21.85;15.55;;;12.20;99.90;;;;;;5075231;28;20301;-60
2022/04/19 06:47:07;;;;;;;21.73;15.68;;;12.50;99.90;;;;;;5075177;28;20205;-60
2022/04/19 06:49:33;;;;;;;22.13;15.23;;;12.90;99.90;;;;;;5075020;28;20163;-60
2022/04/19 06:51:58;;;;;;;21.48;15.68;;;13.00;99.90;;;;;;5075122;28;20201;-60
2022/04/19 06:54:24;;;;;;;20.05;14.05;;;13.20;99.90;;;;;;5075098;28;20217;-60
2022/04/19 06:56:50;;;;;;;20.55;13.93;;;13.20;99.90;;;;;;5074904;28;20171;-60
2022/04/19 06:59:15;;;;;;;22.00;14.18;;;13.40;99.90;;;;;;5074997;28;20293;-60
2022/04/19 07:01:43;;;;;;;23.52;15.23;;;13.40;99.90;;;;;;5073612;28;20175;-60
2022/04/19 07:04:09;;;;;;;20.50;14.82;;;13.50;99.90;;;;;;5074872;28;20254;-60
2022/04/19 07:06:35;;;;;;;18.98;13.77;;;13.70;99.90;;;;;;5074697;28;20166;-60
2022/04/19 07:09:01;;;;;;;18.52;13.98;;;13.60;99.90;;;;;;5074593;28;20186;-60
2022/04/19 07:11:27;;;;;;;17.15;13.15;;;13.80;99.90;;;;;;5074744;28;20533;-60
2022/04/19 07:13:53;;;;;;;21.15;14.52;;;13.90;99.90;;;;;;5074383;28;20182;-60
2022/04/19 07:16:18;;;;;;;20.65;14.20;;;13.90;99.90;;;;;;5074368;28;20175;-60
2022/04/19 07:18:44;;;;;;;18.33;13.07;;;13.90;99.90;;;;;;5074463;28;20179;-60
2022/04/19 07:26:38;;;;;;;17.10;12.35;;;13.90;99.90;;;;;;5074610;28;20549;-60
2022/04/19 07:29:04;;;;;;;16.55;11.90;;;14.00;99.90;;;;;;5074281;28;20171;-60
2022/04/19 07:31:31;;;;;;;16.58;11.82;;;14.10;99.90;;;;;;5074172;28;20339;-60
2022/04/19 07:33:57;;;;;;;15.52;11.90;;;14.20;99.90;;;;;;5074381;28;20250;-61
2022/04/19 07:36:23;;;;;;;16.00;12.00;;;14.30;99.90;;;;;;5074268;28;20179;-60
2022/04/19 07:38:49;;;;;;;16.15;11.15;;;14.40;99.90;;;;;;5074025;28;20174;-60
2022/04/19 07:41:17;;;;;;;14.05;10.45;;;14.50;99.90;;;;;;5056146;28;20183;-60
2022/04/19 07:43:44;;;;;;;14.90;10.50;;;14.60;99.90;;;;;;5073818;28;20190;-60
2022/04/19 07:46:10;;;;;;;16.65;10.23;;;14.80;99.90;;;;;;5055810;28;20649;-61
2022/04/19 07:48:37;;;;;;;13.80;10.35;;;14.90;99.90;;;;;;5056320;28;20529;-60
2022/04/19 07:51:03;;;;;;;15.07;11.13;;;15.00;99.90;;;;;;5039720;28;20175;-60
2022/04/19 07:53:28;;;;;;;14.20;10.45;;;15.10;99.90;;;;;;5055865;28;20175;-60
2022/04/19 07:55:57;;;;;;;14.50;10.50;;;15.30;99.90;;;;;;5073753;28;20166;-60
2022/04/19 07:58:24;;;;;;;12.77;9.98;;;15.30;99.90;;;;;;5073781;28;20178;-60
2022/04/19 08:00:49;;;;;;;13.50;9.07;;;15.40;99.90;;;;;;5073396;28;20178;-60
2022/04/19 08:03:15;;;;;;;12.57;9.25;;;15.50;99.90;;;;;;5055597;28;20535;-60
2022/04/19 08:05:41;;;;;;;11.23;8.38;;;15.80;99.90;;;;;;5073679;28;20213;-60
2022/04/19 08:08:07;;;;;;;12.70;8.68;;;16.00;99.90;;;;;;5039426;28;20587;-60
2022/04/19 08:10:32;;;;;;;11.88;8.73;;;16.10;99.90;;;;;;5073783;28;20171;-60
2022/04/19 08:12:58;;;;;;;13.40;8.77;;;16.30;99.90;;;;;;5073070;28;20533;-60
2022/04/19 08:15:24;;;;;;;11.82;8.27;;;16.20;99.90;;;;;;5073391;28;20622;-60
2022/04/19 08:17:51;;;;;;;11.45;7.72;;;16.40;99.90;;;;;;5073294;28;20630;-60
2022/04/19 08:20:16;;;;;;;9.55;7.57;;;16.60;99.90;;;;;;5055549;28;20693;-60
2022/04/19 08:22:44;;;;;;;10.23;7.30;;;16.80;99.90;;;;;;5073642;28;20289;-60
2022/04/19 08:25:10;;;;;;;10.70;6.50;;;16.70;99.90;;;;;;5073410;28;20335;-60
2022/04/19 08:27:45;;;;;;;9.07;6.47;;;17.00;99.90;;;;;;5038831;28;20684;-60
2022/04/19 08:30:12;;;;;;;9.57;6.93;;;17.10;99.90;;;;;;5073103;28;20182;-60
2022/04/19 08:32:38;;;;;;;9.38;6.20;;;17.00;98.90;;;;;;5073120;28;20228;-60
2022/04/19 08:35:05;;;;;;;8.60;6.55;;;17.00;99.10;;;;;;5073314;28;20170;-60
2022/04/19 08:37:32;;;;;;;10.50;7.05;;;16.80;99.90;;;;;;5073212;28;20170;-60
2022/04/19 08:39:58;;;;;;;7.68;5.90;;;17.20;97.10;;;;;;5073059;28;20174;-60
2022/04/19 08:42:25;;;;;;;7.70;5.47;;;17.40;98.20;;;;;;5073079;28;20167;-60
2022/04/19 08:44:50;;;;;;;8.20;5.45;;;17.70;98.70;;;;;;5055225;28;20214;-60
2022/04/19 08:47:18;;;;;;;8.88;5.70;;;17.80;99.40;;;;;;5055365;28;20320;-60
2022/04/19 08:49:45;;;;;;;7.05;5.38;;;17.90;96.40;;;;;;5072999;28;20181;-60
2022/04/19 08:52:10;;;;;;;6.80;5.25;;;18.00;97.50;;;;;;5072921;28;20191;-60
2022/04/19 08:57:29;;;;;;;8.50;4.90;;;18.30;95.90;;;;;;5057851;28;20537;-60
2022/04/19 08:59:55;;;;;;;5.82;4.13;;;18.30;80.70;;;;;;5055108;28;20171;-60
2022/04/19 09:02:29;;;;;;;6.13;4.22;;;18.00;77.30;;;;;;5072838;28;20187;-60
2022/04/19 09:05:10;;;;;;;4.90;3.75;;;17.80;72.40;;;;;;5054915;28;20661;-60
2022/04/19 09:07:37;;;;;;;6.60;4.13;;;17.60;68.90;;;;;;5072759;28;20541;-60
2022/04/19 09:10:03;;;;;;;6.68;4.45;;;17.40;66.20;;;;;;5072761;28;20510;-60
2022/04/19 09:12:29;;;;;;;5.97;4.20;;;17.40;69.20;;;;;;5072693;28;20538;-60
2022/04/19 09:15:09;;;;;;;7.28;4.00;;;17.30;67.30;;;;;;5072763;28;20175;-59
2022/04/19 09:17:38;;;;;;;5.97;4.05;;;17.40;69.40;;;;;;5072811;28;20245;-60
2022/04/19 09:20:13;;;;;;;4.78;3.80;;;17.60;74.10;;;;;;5072562;28;20175;-60
2022/04/19 09:22:39;;;;;;;6.22;3.85;;;17.70;66.70;;;;;;5055005;28;20177;-60
2022/04/19 09:25:25;;;;;;;6.63;4.18;;;17.80;66.80;;;;;;5074737;28;20273;-59
2022/04/19 09:27:53;;;;;;;7.45;4.45;;;17.90;68.10;;;;;;5076680;28;20179;-60
2022/04/19 09:30:26;;;;;;;5.15;4.00;;;18.00;68.00;;;;;;5076414;28;20213;-63
2022/04/19 09:33:10;;;;;;;7.30;4.22;;;18.10;66.70;;;;;;5076502;28;20175;-60
2022/04/19 09:35:38;;;;;;;6.65;4.22;;;18.10;66.00;;;;;;5058524;28;20206;-60
2022/04/19 09:38:08;;;;;;;4.47;3.33;;;18.20;66.80;;;;;;5076504;28;20174;-60
2022/04/19 09:40:45;;;;;;;5.05;3.47;;;18.50;67.90;;;;;;5057889;28;20553;-60
2022/04/19 09:43:21;;;;;;;4.93;3.75;;;18.50;65.10;;;;;;5076349;28;20201;-60
2022/04/19 09:45:58;;;;;;;5.82;3.63;;;18.60;61.50;;;;;;5076330;28;20175;-60
2022/04/19 09:48:31;;;;;;;6.00;3.60;;;18.60;59.80;;;;;;5058320;28;20171;-60
2022/04/19 09:51:04;;;;;;;5.25;3.33;;;18.70;61.90;;;;;;5076125;28;20637;-60
2022/04/19 09:53:50;;;;;;;4.28;3.15;;;18.70;63.10;;;;;;5076052;28;20228;-60
2022/04/19 09:56:21;;;;;;;6.20;3.30;;;18.80;64.30;;;;;;5075606;28;20540;-60
2022/04/19 09:58:48;;;;;;;4.07;3.03;;;19.10;65.90;;;;;;5075955;28;20179;-60
2022/04/19 10:09:33;;;;;;;3.60;2.75;;;19.10;57.30;;;;;;5076208;28;20189;-60
2022/04/19 10:12:01;;;;;;;3.47;2.97;;;19.30;57.20;;;;;;5075677;28;20170;-61
2022/04/19 10:14:29;;;;;;;3.83;3.13;;;19.20;53.60;;;;;;5075924;28;20175;-60
2022/04/19 10:16:59;;;;;;;4.20;3.13;;;19.50;58.50;;;;;;5075746;28;20240;-60
2022/04/19 10:19:27;;;;;;;5.72;2.50;;;19.50;55.20;;;;;;5075655;28;20532;-60
2022/04/19 10:21:53;;;;;;;3.17;2.40;;;19.30;48.90;;;;;;5075553;28;20675;-60
2022/04/19 10:24:20;;;;;;;3.47;2.55;;;19.40;50.60;;;;;;5075498;28;20190;-60
2022/04/19 10:26:51;;;;;;;3.20;2.55;;;19.30;50.80;;;;;;5075288;28;20182;-60
2022/04/19 10:29:22;;;;;;;3.50;2.42;;;19.30;52.30;;;;;;5075626;28;20525;-60
2022/04/19 10:32:01;;;;;;;4.43;2.95;;;19.40;49.30;;;;;;5075462;28;20209;-60
2022/04/19 10:34:29;;;;;;;3.47;2.58;;;19.30;49.30;;;;;;5075374;28;20653;-60
2022/04/19 10:36:58;;;;;;;6.72;3.53;;;19.20;49.40;;;;;;5074905;28;20178;-60
2022/04/19 10:39:33;;;;;;;5.32;3.15;;;19.40;53.30;;;;;;5075074;28;20639;-60
2022/04/19 10:42:05;;;;;;;5.85;3.35;;;19.40;53.10;;;;;;5075281;28;20162;-60
2022/04/19 10:44:43;;;;;;;5.05;3.03;;;19.50;51.80;;;;;;5075070;28;20206;-60
2022/04/19 10:47:14;;;;;;;4.88;3.08;;;19.20;47.70;;;;;;5075117;28;20178;-60
2022/04/19 10:50:00;;;;;;;5.03;3.13;;;19.20;47.50;;;;;;5074992;28;20166;-60
2022/04/19 10:52:40;;;;;;;4.35;3.03;;;19.30;47.90;;;;;;5075173;28;20167;-60
2022/04/19 10:55:09;;;;;;;4.88;3.15;;;19.40;49.20;;;;;;5074961;28;20310;-59
2022/04/19 11:00:46;;;;;;;4.00;2.78;;;19.50;48.50;;;;;;5075094;28;20213;-60
2022/04/19 11:03:17;;;;;;;4.50;2.92;;;19.30;48.10;;;;;;5074488;28;20205;-60
2022/04/19 11:05:50;;;;;;;4.90;3.05;;;19.30;48.90;;;;;;5074855;28;20183;-61
2022/04/19 11:08:25;;;;;;;5.03;3.13;;;19.50;48.70;;;;;;5074659;28;20162;-60
2022/04/19 11:10:52;;;;;;;5.53;3.10;;;19.50;47.40;;;;;;5056836;28;20178;-59
2022/04/19 11:13:37;;;;;;;4.78;3.00;;;19.60;49.30;;;;;;5074159;28;20191;-60
2022/04/19 11:16:05;;;;;;;4.60;3.00;;;19.70;47.70;;;;;;5042577;28;20265;-60
2022/04/19 11:18:37;;;;;;;6.55;2.80;;;19.40;48.00;;;;;;5074475;28;20175;-59
2022/04/19 11:21:07;;;;;;;4.38;2.88;;;19.50;47.90;;;;;;5074672;28;20163;-60
2022/04/19 11:23:50;;;;;;;5.75;3.13;;;19.60;49.00;;;;;;5074438;28;20237;-60
2022/04/19 11:26:30;;;;;;;4.18;2.72;;;19.60;47.00;;;;;;5057717;28;20174;-60
2022/04/19 11:29:18;;;;;;;3.78;2.50;;;19.60;47.00;;;;;;5074263;28;20162;-60
2022/04/19 11:31:43;;;;;;;4.22;2.70;;;19.70;47.80;;;;;;5074285;28;20186;-60
2022/04/19 11:34:13;;;;;;;3.33;2.60;;;19.50;47.40;;;;;;5073971;28;20178;-61
2022/04/19 11:36:39;;;;;;;3.65;2.63;;;19.40;45.30;;;;;;5039612;28;20185;-60
2022/04/19 11:39:05;;;;;;;4.97;2.75;;;19.50;50.70;;;;;;5074063;28;20254;-60
2022/04/19 11:47:02;;;;;;;4.05;2.85;;;19.60;48.40;;;;;;5073524;28;20196;-60
2022/04/19 11:49:35;;;;;;;4.32;2.65;;;19.60;49.10;;;;;;5056000;28;20198;-60
2022/04/19 11:52:09;;;;;;;4.70;2.78;;;19.90;49.40;;;;;;5073691;28;20418;-60
2022/04/19 11:54:35;;;;;;;4.47;2.60;;;20.10;47.90;;;;;;5073720;28;20538;-60
2022/04/19 11:57:10;;;;;;;3.40;2.63;;;19.90;47.20;;;;;;5073855;28;20171;-60
2022/04/19 11:59:39;;;;;;;4.53;2.70;;;19.90;47.60;;;;;;5055896;28;20522;-60
2022/04/19 12:02:15;;;;;;;4.20;2.90;;;19.90;47.30;;;;;;5073520;28;20173;-60
2022/04/19 12:04:55;;;;;;;3.95;3.03;;;20.00;47.70;;;;;;5073573;28;20221;-60
2022/04/19 12:07:21;;;;;;;4.00;2.60;;;20.00;48.40;;;;;;5073718;28;20182;-60
2022/04/19 12:09:50;;;;;;;3.97;2.80;;;20.20;48.80;;;;;;5073507;28;20213;-60
2022/04/19 12:12:16;;;;;;;5.03;2.85;;;20.20;47.80;;;;;;5073502;28;20168;-61
2022/04/19 12:14:48;;;;;;;4.00;2.40;;;20.20;48.00;;;;;;5073368;28;20498;-60
2022/04/19 12:17:19;;;;;;;4.18;2.58;;;20.30;46.60;;;;;;5073354;28;20220;-60
2022/04/19 12:19:45;;;;;;;3.30;2.42;;;20.20;46.10;;;;;;5073523;28;20193;-60
2022/04/19 12:22:18;;;;;;;4.63;3.05;;;20.20;46.90;;;;;;5022506;28;20167;-61
2022/04/19 12:24:57;;;;;;;4.35;3.03;;;20.30;45.60;;;;;;5073284;28;20669;-60
2022/04/19 12:27:25;;;;;;;5.43;3.35;;;20.20;47.80;;;;;;5073239;28;20174;-60
2022/04/19 12:29:56;;;;;;;5.40;3.38;;;20.10;47.20;;;;;;5073323;28;20646;-60
2022/04/19 12:32:21;;;;;;;6.15;3.42;;;20.20;48.70;;;;;;5073253;28;20174;-60
2022/04/19 12:34:47;;;;;;;4.97;3.15;;;20.20;48.40;;;;;;5073295;28;20171;-60
2022/04/19 12:37:21;;;;;;;4.30;2.97;;;20.20;47.90;;;;;;5073370;28;20633;-60
2022/04/19 12:39:59;;;;;;;5.85;3.72;;;20.00;46.00;;;;;;5073186;28;20175;-60
2022/04/19 12:42:26;;;;;;;5.70;3.10;;;20.10;46.60;;;;;;5073206;28;20253;-60
2022/04/19 12:45:06;;;;;;;4.32;3.20;;;20.20;47.00;;;;;;5038551;28;20320;-62
2022/04/19 12:47:32;;;;;;;5.40;3.08;;;20.30;48.40;;;;;;5073318;28;20244;-60
2022/04/19 12:50:08;;;;;;;5.88;3.63;;;20.30;49.20;;;;;;5055053;28;20185;-60
2022/04/19 12:52:34;;;;;;;4.70;3.33;;;20.30;49.80;;;;;;5055205;28;20633;-60
2022/04/19 12:55:01;;;;;;;5.13;3.42;;;20.20;49.20;;;;;;5073039;28;20185;-60
2022/04/19 12:57:27;;;;;;;5.65;3.60;;;20.20;48.10;;;;;;5072997;28;20189;-60
2022/04/19 12:59:52;;;;;;;6.07;3.53;;;20.10;48.00;;;;;;5058948;28;20170;-60
2022/04/19 13:02:19;;;;;;;5.00;3.30;;;20.00;46.80;;;;;;5077181;28;20236;-60
2022/04/19 13:04:48;;;;;;;5.85;4.05;;;19.80;47.40;;;;;;5077254;28;20661;-60
2022/04/19 13:12:43;;;;;;;6.30;3.80;;;20.00;48.70;;;;;;5077199;28;20281;-60
2022/04/19 13:15:10;;;;;;;5.03;3.75;;;20.00;48.50;;;;;;5076768;28;20648;-60
2022/04/19 13:17:39;;;;;;;6.88;3.42;;;20.10;48.40;;;;;;5058789;28;20680;-60
2022/04/19 13:20:05;;;;;;;5.43;3.70;;;20.00;46.90;;;;;;5076928;28;20192;-60
2022/04/19 13:22:31;;;;;;;5.93;4.18;;;20.00;47.40;;;;;;5076796;28;20174;-60